Time;durP1;ratioP1;P1;durP2;ratioP2;P2;SDS_P1;SDS_P2;PMS_P1;PMS_P2;Temp;Humidity;BMP_temperature;BMP_pressure;BME280_temperature;BME280_humidity;BME280_pressure;Samples;Min_cycle;Max_cycle;Signal;HPM_P1;HPM_P2
2021/10/30 00:01:22;;;;;;;35.72;23.90;;;5.90;71.30;;;5.01;57.51;94803.41;5073049;28;20213;-81
2021/10/30 00:03:50;;;;;;;32.85;22.42;;;5.90;71.50;;;5.07;57.11;94804.56;5055801;28;20206;-81
2021/10/30 00:06:18;;;;;;;30.92;22.05;;;5.90;71.50;;;5.09;57.14;94800.84;5072291;28;20208;-82
2021/10/30 00:08:46;;;;;;;34.40;23.05;;;6.00;71.80;;;5.11;56.99;94800.66;5062857;28;20207;-81
2021/10/30 00:11:13;;;;;;;34.40;23.20;;;5.90;71.50;;;5.10;57.23;94799.03;5072921;28;20208;-82
2021/10/30 00:13:40;;;;;;;34.42;22.60;;;5.90;71.60;;;5.13;57.46;94803.94;5056609;28;20711;-81
2021/10/30 00:16:07;;;;;;;31.27;21.75;;;6.00;71.70;;;5.11;57.49;94800.66;5058908;28;20275;-81
2021/10/30 00:18:34;;;;;;;29.88;21.38;;;6.00;71.80;;;5.14;57.54;94800.38;5075965;28;20285;-82
2021/10/30 00:21:02;;;;;;;34.63;22.77;;;6.00;71.80;;;5.16;57.35;94793.19;5076157;28;20198;-82
2021/10/30 00:23:29;;;;;;;33.00;22.67;;;6.00;71.80;;;5.16;57.47;94790.59;5092494;28;20648;-82
2021/10/30 00:25:56;;;;;;;30.40;21.80;;;6.00;71.80;;;5.16;57.35;94790.59;5076030;28;20280;-81
2021/10/30 00:28:23;;;;;;;32.08;21.67;;;6.00;71.90;;;5.19;57.72;94798.09;5058095;28;20249;-81
2021/10/30 00:30:51;;;;;;;33.53;21.95;;;6.00;72.00;;;5.20;57.63;94786.72;5075568;28;20699;-81
2021/10/30 00:33:18;;;;;;;30.90;20.88;;;6.10;72.10;;;5.23;57.36;94790.78;5075736;28;20206;-81
2021/10/30 00:35:45;;;;;;;32.60;21.67;;;6.10;72.10;;;5.24;57.66;94802.81;5075950;28;20194;-82
2021/10/30 00:38:12;;;;;;;28.92;21.05;;;6.00;71.90;;;5.21;57.44;94790.94;5075457;28;20273;-81
2021/10/30 00:40:39;;;;;;;32.30;22.17;;;6.00;71.90;;;5.23;57.24;94796.78;5076001;28;20205;-82
2021/10/30 00:43:07;;;;;;;32.35;21.45;;;6.00;71.90;;;5.21;57.69;94798.75;5075495;28;20336;-81
2021/10/30 00:45:35;;;;;;;30.33;21.63;;;6.10;72.10;;;5.21;57.62;94811.75;5092219;28;20285;-81
2021/10/30 00:48:02;;;;;;;33.13;22.33;;;6.00;71.90;;;5.20;57.51;94806.69;5071576;28;20219;-81
2021/10/30 00:50:29;;;;;;;30.50;20.92;;;6.10;72.00;;;5.14;57.61;94800.38;5055514;28;20286;-82
2021/10/30 00:52:58;;;;;;;31.35;21.05;;;6.00;71.90;;;5.17;57.37;94794.03;5055224;28;21117;-82
2021/10/30 00:55:26;;;;;;;31.33;21.80;;;6.10;72.10;;;5.15;57.56;94796.78;5055542;28;20233;-82
2021/10/30 00:57:55;;;;;;;29.63;21.88;;;6.00;72.10;;;5.14;57.77;94789.97;5072636;28;20215;-81
2021/10/30 01:00:22;;;;;;;33.63;22.55;;;6.00;72.10;;;5.09;57.60;94785.25;5092334;28;20202;-82
2021/10/30 01:02:56;;;;;;;32.17;22.30;;;6.00;71.90;;;5.10;57.63;94791.25;5092041;28;20210;-82
2021/10/30 01:05:24;;;;;;;32.67;21.98;;;6.00;72.00;;;5.06;57.46;94795.94;5092107;28;20230;-82
2021/10/30 01:07:51;;;;;;;32.38;22.88;;;6.00;71.90;;;5.05;57.41;94776.13;5063410;28;20219;-81
2021/10/30 01:10:19;;;;;;;33.47;22.15;;;6.00;71.90;;;5.02;57.48;94780.84;5043595;28;20214;-81
2021/10/30 01:12:47;;;;;;;33.15;22.15;;;5.90;72.00;;;4.96;57.71;94777.09;5055259;28;20319;-82
2021/10/30 01:15:15;;;;;;;28.60;21.02;;;5.90;71.90;;;4.92;57.55;94773.16;5038504;28;20255;-81
2021/10/30 01:17:42;;;;;;;35.75;22.88;;;5.90;71.80;;;4.89;57.87;94773.50;5038428;28;20314;-81
2021/10/30 01:20:21;;;;;;;33.85;22.15;;;5.80;71.70;;;4.85;57.80;94774.81;5080243;28;20191;-81
2021/10/30 01:22:48;;;;;;;32.25;23.30;;;5.80;73.00;;;4.80;57.89;94768.28;5054919;28;20219;-82
2021/10/30 01:25:23;;;;;;;33.40;22.02;;;5.80;71.90;;;4.77;57.71;94752.22;5071295;28;20243;-81
2021/10/30 01:27:53;;;;;;;33.90;24.08;;;5.70;72.60;;;4.74;58.09;94762.94;5073931;28;20214;-81
2021/10/30 01:30:22;;;;;;;35.08;23.35;;;5.70;72.20;;;4.75;58.01;94760.16;5075264;28;20199;-81
2021/10/30 01:33:01;;;;;;;35.42;22.90;;;5.70;72.20;;;4.74;58.34;94755.13;5075372;28;20222;-82
2021/10/30 01:35:38;;;;;;;36.90;24.15;;;5.70;72.80;;;4.74;58.03;94758.53;5091684;28;20216;-82
2021/10/30 01:38:06;;;;;;;33.92;23.02;;;5.60;72.80;;;4.71;58.27;94752.84;5087656;28;20218;-82
2021/10/30 01:40:50;;;;;;;36.00;23.75;;;5.60;72.30;;;4.70;58.44;94759.84;5054968;28;20238;-82
2021/10/30 01:43:19;;;;;;;33.53;23.88;;;5.60;72.80;;;4.71;58.02;94750.25;5054741;28;20218;-81
2021/10/30 01:45:46;;;;;;;36.33;24.77;;;5.60;72.40;;;4.71;57.98;94755.44;5054571;28;20223;-82
2021/10/30 01:48:13;;;;;;;37.30;25.40;;;5.60;72.50;;;4.71;58.35;94756.28;5085151;28;20248;-81
2021/10/30 01:50:46;;;;;;;35.08;24.17;;;5.60;72.70;;;4.71;58.38;94755.44;5075668;28;20610;-82
2021/10/30 01:53:14;;;;;;;36.33;24.25;;;5.60;72.80;;;4.72;58.06;94762.28;5074578;28;20206;-82
2021/10/30 01:55:41;;;;;;;34.95;24.42;;;5.60;72.80;;;4.71;58.23;94752.84;5067865;28;20199;-82
2021/10/30 01:58:09;;;;;;;33.55;24.13;;;5.60;72.70;;;4.73;58.48;94758.72;5055044;28;20212;-81
2021/10/30 02:00:39;;;;;;;36.92;24.80;;;5.60;72.80;;;4.71;58.21;94753.69;5090063;28;20209;-81
2021/10/30 02:03:07;;;;;;;36.17;24.90;;;5.60;72.80;;;4.74;58.37;94762.94;5074557;28;20217;-81
2021/10/30 02:05:34;;;;;;;36.35;25.75;;;5.60;72.80;;;4.71;58.60;94760.63;5074550;28;20610;-82
2021/10/30 02:08:01;;;;;;;38.83;24.98;;;5.60;72.80;;;4.70;58.54;94759.00;5081994;28;20250;-81
2021/10/30 02:10:28;;;;;;;38.88;25.30;;;5.60;72.80;;;4.73;58.43;94756.91;5054635;28;20252;-81
2021/10/30 02:12:56;;;;;;;37.30;25.38;;;5.60;72.80;;;4.72;58.49;94757.06;5037747;28;20613;-81
2021/10/30 02:15:24;;;;;;;38.45;24.90;;;5.60;72.80;;;4.70;58.32;94748.63;5054470;28;20203;-81
2021/10/30 02:17:52;;;;;;;34.00;23.70;;;5.60;72.80;;;4.65;58.37;94743.91;5056446;28;20211;-81
2021/10/30 02:20:20;;;;;;;35.15;24.33;;;5.60;72.80;;;4.65;58.42;94743.91;5074724;28;20207;-82
2021/10/30 02:22:51;;;;;;;36.05;24.98;;;5.60;72.80;;;4.64;58.32;94747.50;5074789;28;20230;-82
2021/10/30 02:25:23;;;;;;;37.85;24.23;;;5.50;72.70;;;4.61;58.46;94746.03;5074908;28;20650;-82
2021/10/30 02:27:52;;;;;;;38.38;25.45;;;5.50;72.70;;;4.58;58.51;94737.75;5077729;28;20215;-82
2021/10/30 02:30:20;;;;;;;36.50;24.73;;;5.50;72.70;;;4.54;58.56;94737.25;5041876;28;20231;-82
2021/10/30 02:32:47;;;;;;;38.67;25.90;;;5.50;72.70;;;4.51;58.63;94740.13;5058127;28;20246;-82
2021/10/30 02:35:15;;;;;;;36.90;25.70;;;5.50;72.70;;;4.49;58.70;94735.13;5058318;28;20655;-81
2021/10/30 02:37:42;;;;;;;38.00;25.38;;;5.40;72.70;;;4.45;58.78;94726.00;5068778;28;20222;-81
2021/10/30 02:40:11;;;;;;;36.15;24.92;;;5.40;72.70;;;4.47;58.73;94725.84;5077980;28;20194;-81
2021/10/30 02:42:39;;;;;;;38.53;24.75;;;5.40;72.70;;;4.45;58.75;94723.41;5061456;28;20660;-80
2021/10/30 02:45:07;;;;;;;38.72;25.40;;;5.40;72.70;;;4.41;58.62;94716.09;5091338;28;20676;-82
2021/10/30 02:47:35;;;;;;;36.88;25.73;;;5.30;72.60;;;4.40;59.12;94717.88;5057702;28;20246;-81
2021/10/30 02:50:03;;;;;;;37.90;24.55;;;5.40;72.70;;;4.37;58.58;94714.78;5058183;28;20191;-81
2021/10/30 02:52:30;;;;;;;35.92;24.13;;;5.30;72.60;;;4.33;58.99;94709.91;5086912;28;20704;-81
2021/10/30 02:54:57;;;;;;;37.15;24.67;;;5.30;72.60;;;4.28;58.88;94717.34;5091206;28;20294;-81
2021/10/30 02:57:24;;;;;;;37.38;24.38;;;5.30;72.60;;;4.28;58.88;94711.34;5060072;28;20226;-81
2021/10/30 02:59:54;;;;;;;35.67;24.67;;;5.20;72.50;;;4.25;58.69;94709.09;5077934;28;20678;-80
2021/10/30 03:02:21;;;;;;;40.10;26.30;;;5.20;72.50;;;4.24;58.79;94704.84;5072117;28;20221;-80
2021/10/30 03:04:49;;;;;;;36.47;24.92;;;5.20;72.50;;;4.17;58.41;94699.47;5086186;28;20332;-81
2021/10/30 03:07:18;;;;;;;37.42;25.60;;;5.20;72.50;;;4.19;58.79;94696.72;5070139;28;20211;-81
2021/10/30 03:09:49;;;;;;;39.92;25.55;;;5.10;72.50;;;4.21;58.91;94702.56;5067652;28;20191;-81
2021/10/30 03:12:18;;;;;;;39.38;26.00;;;5.10;73.40;;;4.20;58.92;94700.94;5087162;28;20352;-82
2021/10/30 03:14:45;;;;;;;39.65;26.60;;;5.10;72.70;;;4.19;59.00;94702.72;5037159;28;20286;-82
2021/10/30 03:17:12;;;;;;;43.80;26.40;;;5.10;72.80;;;4.20;58.73;94698.34;5070152;28;20200;-83
2021/10/30 03:19:40;;;;;;;41.50;25.83;;;5.10;72.80;;;4.22;59.40;94691.22;5037192;28;20192;-81
2021/10/30 03:22:07;;;;;;;41.40;26.95;;;5.10;73.10;;;4.21;59.10;94686.97;5054102;28;20219;-82
2021/10/30 03:24:35;;;;;;;39.70;26.33;;;5.10;73.10;;;4.18;59.07;94685.53;5071642;28;20199;-82
2021/10/30 03:27:04;;;;;;;40.80;26.35;;;5.10;73.10;;;4.24;59.18;94692.69;5055825;28;20663;-82
2021/10/30 03:29:31;;;;;;;40.63;26.00;;;5.10;73.20;;;4.24;59.19;94682.28;5073674;28;20201;-81
2021/10/30 03:31:58;;;;;;;40.55;25.08;;;5.20;73.20;;;4.24;59.06;94686.69;5073792;28;20219;-81
2021/10/30 03:34:25;;;;;;;38.42;25.58;;;5.10;73.20;;;4.22;59.26;94683.44;5075239;28;20205;-82
2021/10/30 03:36:52;;;;;;;40.38;25.77;;;5.10;73.10;;;4.22;59.10;94686.81;5074427;28;20308;-82
2021/10/30 03:39:19;;;;;;;37.90;25.75;;;5.10;73.20;;;4.18;59.03;94682.94;5059376;28;20201;-82
2021/10/30 03:41:47;;;;;;;40.42;26.67;;;5.10;73.20;;;4.18;59.17;94682.94;5093705;28;20286;-82
2021/10/30 03:44:15;;;;;;;42.65;27.95;;;5.10;73.20;;;4.18;59.26;94692.50;5076900;28;20199;-82
2021/10/30 03:46:42;;;;;;;37.85;25.90;;;5.10;73.20;;;4.15;59.18;94685.81;5074414;28;20235;-81
2021/10/30 03:49:09;;;;;;;36.45;25.15;;;5.10;73.20;;;4.12;59.47;94686.94;5058807;28;20193;-82
2021/10/30 03:51:42;;;;;;;42.05;27.70;;;5.10;73.20;;;4.08;59.25;94677.88;5093535;28;20225;-82
2021/10/30 03:54:09;;;;;;;40.22;26.48;;;5.10;73.20;;;4.14;59.50;94689.41;5076668;28;20202;-82
2021/10/30 03:56:37;;;;;;;40.22;27.13;;;5.10;73.30;;;4.12;59.33;94689.56;5076797;28;20280;-82
2021/10/30 03:59:04;;;;;;;43.20;27.15;;;5.00;73.20;;;4.11;59.33;94687.13;5063724;28;20290;-82
2021/10/30 04:01:31;;;;;;;37.30;26.27;;;5.00;73.30;;;4.09;59.81;94689.88;5056847;28;20288;-82
2021/10/30 04:03:59;;;;;;;42.95;27.63;;;5.00;73.40;;;4.08;59.35;94693.44;5056833;28;20214;-82
2021/10/30 04:06:26;;;;;;;43.25;27.63;;;5.00;73.40;;;4.08;59.12;94700.44;5056293;28;20684;-84
2021/10/30 04:08:53;;;;;;;41.85;26.52;;;5.00;73.50;;;4.11;59.32;94702.69;5060122;28;20190;-81
2021/10/30 04:11:22;;;;;;;39.28;26.88;;;5.00;73.40;;;4.10;59.79;94701.91;5056747;28;20219;-81
2021/10/30 04:13:50;;;;;;;41.20;27.27;;;5.00;73.60;;;4.10;59.45;94701.91;5056269;28;20286;-81
2021/10/30 04:16:17;;;;;;;42.40;27.77;;;5.00;73.60;;;4.11;59.72;94694.91;5056338;28;20332;-81
2021/10/30 04:18:44;;;;;;;43.03;27.92;;;5.00;73.70;;;4.14;59.40;94697.19;5056400;28;20199;-82
2021/10/30 04:21:12;;;;;;;43.05;28.23;;;5.00;73.80;;;4.18;59.69;94695.91;5072589;28;20290;-81
2021/10/30 04:23:40;;;;;;;47.20;29.63;;;5.00;73.90;;;4.13;59.69;94696.38;5056108;28;20191;-82
2021/10/30 04:26:08;;;;;;;42.47;28.30;;;5.00;74.70;;;4.21;59.54;94695.59;5063768;28;20231;-82
2021/10/30 04:28:36;;;;;;;43.80;28.35;;;5.10;73.90;;;4.22;59.52;94699.81;5058021;28;20269;-82
2021/10/30 04:31:06;;;;;;;46.25;30.23;;;5.00;73.90;;;4.25;60.25;94694.31;5059810;28;20232;-82
2021/10/30 04:33:35;;;;;;;46.08;30.30;;;5.20;74.90;;;4.25;59.68;94689.13;5075538;28;20644;-82
2021/10/30 04:36:13;;;;;;;46.05;29.92;;;5.10;74.10;;;4.27;59.58;94694.13;5056206;28;20572;-82
2021/10/30 04:38:42;;;;;;;43.50;30.05;;;5.10;74.00;;;4.27;59.68;94687.19;5057613;28;20187;-82
2021/10/30 04:41:10;;;;;;;44.65;29.58;;;5.10;74.00;;;4.29;59.84;94685.22;5056046;28;20218;-81
2021/10/30 04:43:37;;;;;;;44.67;30.02;;;5.10;74.00;;;4.29;60.08;94684.41;5055760;28;20249;-81
2021/10/30 04:46:07;;;;;;;44.10;30.25;;;5.10;73.90;;;4.28;59.80;94688.78;5055497;28;20265;-82
2021/10/30 04:48:36;;;;;;;47.72;31.90;;;5.10;74.00;;;4.27;60.01;94678.56;5055970;28;20383;-82
2021/10/30 04:51:05;;;;;;;43.40;29.38;;;5.10;73.90;;;4.24;59.94;94674.50;5054550;28;20192;-79
2021/10/30 04:53:36;;;;;;;45.97;30.88;;;5.10;74.00;;;4.19;59.85;94674.16;5049224;28;20297;-79
2021/10/30 04:56:03;;;;;;;44.35;29.52;;;5.10;73.90;;;4.14;59.60;94671.25;5072090;28;20214;-79
2021/10/30 04:58:31;;;;;;;46.05;29.80;;;5.10;73.80;;;4.13;59.73;94677.41;5059122;28;20207;-80
2021/10/30 05:01:00;;;;;;;115.28;63.22;;;5.10;73.70;;;4.09;59.72;94679.50;5075033;28;20199;-79
2021/10/30 05:03:28;;;;;;;126.30;71.18;;;5.00;73.70;;;4.06;59.74;94668.63;5058551;28;20711;-80
2021/10/30 05:05:55;;;;;;;81.53;50.78;;;5.00;73.70;;;4.04;59.90;94675.75;5088610;28;20210;-80
2021/10/30 05:08:22;;;;;;;60.25;39.83;;;5.00;73.70;;;4.00;59.78;94664.84;5066692;28;20194;-80
2021/10/30 05:10:50;;;;;;;51.80;34.50;;;5.00;73.70;;;3.97;60.08;94660.81;5091412;28;20214;-79
2021/10/30 05:13:17;;;;;;;47.33;32.67;;;5.00;73.80;;;3.92;59.57;94651.84;5058482;28;20226;-80
2021/10/30 05:15:44;;;;;;;52.95;33.67;;;4.90;73.70;;;3.93;60.25;94653.47;5074584;28;20198;-79
2021/10/30 05:18:11;;;;;;;49.90;32.10;;;4.90;73.80;;;3.91;59.92;94647.66;5066941;28;20252;-79
2021/10/30 05:20:38;;;;;;;51.97;32.88;;;4.90;73.90;;;3.88;60.09;94638.38;5072246;28;20273;-79
2021/10/30 05:23:05;;;;;;;51.90;31.90;;;4.80;73.80;;;3.86;59.98;94645.53;5073772;28;20731;-79
2021/10/30 05:25:32;;;;;;;53.80;32.78;;;4.80;73.80;;;3.82;59.90;94645.03;5058433;28;20214;-79
2021/10/30 05:28:00;;;;;;;53.63;33.45;;;4.90;73.90;;;3.77;59.85;94642.09;5058101;28;20246;-79
2021/10/30 05:30:27;;;;;;;57.03;34.88;;;4.80;73.90;;;3.76;60.01;94647.41;5058429;28;20618;-79
2021/10/30 05:32:54;;;;;;;56.00;35.05;;;4.70;73.80;;;3.72;59.94;94652.09;5058062;28;20218;-79
2021/10/30 05:35:40;;;;;;;53.95;34.00;;;4.70;73.80;;;3.69;59.99;94644.66;5091718;28;20769;-81
2021/10/30 05:38:46;;;;;;;51.63;32.40;;;4.70;73.70;;;3.63;60.35;94645.28;5047246;28;20203;-79
2021/10/30 05:41:16;;;;;;;58.38;34.58;;;4.70;73.80;;;3.63;60.15;94653.84;5054878;28;20752;-79
2021/10/30 05:43:46;;;;;;;60.08;37.38;;;4.60;73.80;;;3.64;60.37;94662.47;5055647;28;20207;-79
2021/10/30 05:46:14;;;;;;;59.97;37.63;;;4.60;74.00;;;3.67;60.25;94670.75;5054729;28;20272;-80
2021/10/30 05:48:42;;;;;;;65.45;38.88;;;4.60;74.20;;;3.70;60.46;94677.41;5061015;28;20195;-79
2021/10/30 05:51:12;;;;;;;54.25;35.88;;;4.60;74.20;;;3.73;60.28;94679.66;5074751;28;20220;-78
2021/10/30 05:53:41;;;;;;;54.55;36.58;;;4.60;74.30;;;3.75;60.24;94675.16;5073726;28;20723;-78
2021/10/30 05:56:08;;;;;;;54.20;35.05;;;4.60;74.40;;;3.76;60.38;94668.16;5074364;28;20214;-79
2021/10/30 05:58:36;;;;;;;54.65;34.13;;;4.60;74.30;;;3.77;60.20;94662.84;5056540;28;20199;-79
2021/10/30 06:01:03;;;;;;;52.70;33.92;;;4.60;74.30;;;3.80;60.32;94672.09;5073963;28;20183;-80
2021/10/30 06:03:31;;;;;;;49.70;32.30;;;4.60;74.40;;;3.78;60.29;94667.03;5078691;28;20571;-80
2021/10/30 06:05:59;;;;;;;45.55;30.70;;;4.70;74.40;;;3.81;60.31;94666.75;5061016;28;20229;-79
2021/10/30 06:08:26;;;;;;;51.97;32.58;;;4.70;74.50;;;3.76;60.52;94656.03;5059353;28;20195;-80
2021/10/30 06:10:53;;;;;;;48.45;31.27;;;4.70;74.50;;;3.81;60.38;94658.97;5065084;28;20227;-80
2021/10/30 06:13:23;;;;;;;50.63;32.55;;;4.70;74.60;;;3.83;60.23;94656.19;5069500;28;20294;-79
2021/10/30 06:15:50;;;;;;;52.08;31.92;;;4.70;74.60;;;3.82;60.41;94654.56;5058467;28;20207;-80
2021/10/30 06:18:18;;;;;;;76.13;31.52;;;4.70;74.70;;;3.89;60.36;94662.56;5058628;28;20601;-79
2021/10/30 06:20:48;;;;;;;102.47;32.25;;;4.70;74.70;;;3.93;60.20;94653.47;5091555;28;20270;-80
2021/10/30 06:23:16;;;;;;;97.13;30.67;;;4.70;74.80;;;3.98;60.57;94656.44;5058635;28;20210;-80
2021/10/30 06:25:43;;;;;;;93.80;30.17;;;4.80;75.00;;;3.95;60.53;94652.34;5057625;28;20219;-80
2021/10/30 06:28:11;;;;;;;76.97;30.20;;;4.80;75.00;;;4.05;60.48;94654.81;5065758;28;20258;-80
2021/10/30 06:30:39;;;;;;;71.63;29.95;;;4.80;75.00;;;4.11;60.38;94655.97;5061543;28;20705;-80
2021/10/30 06:33:08;;;;;;;68.40;29.35;;;4.80;75.00;;;4.17;60.54;94644.97;5078287;28;20507;-80
2021/10/30 06:35:36;;;;;;;73.57;30.15;;;4.90;75.10;;;4.22;60.38;94647.88;5094484;28;20277;-79
2021/10/30 06:38:03;;;;;;;53.85;29.15;;;4.90;75.10;;;4.25;60.56;94655.38;5073171;28;20226;-79
2021/10/30 06:40:30;;;;;;;50.95;29.65;;;4.90;75.10;;;4.27;60.52;94650.84;5070784;28;20196;-81
2021/10/30 06:42:57;;;;;;;50.00;30.70;;;5.00;75.20;;;4.32;60.62;94650.34;5081727;28;20211;-80
2021/10/30 06:45:25;;;;;;;49.97;32.55;;;5.00;75.20;;;4.40;60.81;94660.75;5085432;28;20203;-80
2021/10/30 06:47:53;;;;;;;44.88;31.63;;;5.10;75.30;;;4.39;60.60;94653.91;5073048;28;20317;-80
2021/10/30 06:50:21;;;;;;;50.25;33.38;;;5.10;75.30;;;4.53;60.83;94664.66;5061322;28;20208;-82
2021/10/30 06:52:53;;;;;;;51.17;33.60;;;5.20;75.50;;;4.62;60.95;94674.88;5077509;28;20597;-81
2021/10/30 06:55:21;;;;;;;55.83;35.97;;;5.20;75.90;;;4.66;61.24;94659.78;5094798;28;20804;-80
2021/10/30 06:57:50;;;;;;;53.63;36.58;;;5.30;75.80;;;4.80;61.28;94666.16;5077414;28;20214;-81
2021/10/30 07:00:18;;;;;;;54.30;36.45;;;5.30;75.70;;;4.91;61.52;94662.44;5094818;28;20206;-81
2021/10/30 07:02:47;;;;;;;59.10;38.45;;;5.40;75.90;;;5.04;61.50;94665.34;5076525;28;20219;-80
2021/10/30 07:05:15;;;;;;;59.85;38.47;;;5.50;76.10;;;5.19;62.32;94659.44;5061636;28;20198;-81
2021/10/30 07:07:42;;;;;;;60.80;40.08;;;5.60;76.30;;;5.27;61.76;94646.44;5076403;28;20234;-81
2021/10/30 07:10:10;;;;;;;62.30;39.72;;;5.80;76.80;;;5.50;61.67;94653.56;5073842;28;20700;-81
2021/10/30 07:12:38;;;;;;;64.97;41.00;;;5.90;76.60;;;5.65;61.67;94658.88;5073400;28;20744;-80
2021/10/30 07:15:09;;;;;;;61.28;39.90;;;5.90;76.90;;;5.80;61.82;94653.78;5074002;28;20207;-80
2021/10/30 07:17:39;;;;;;;60.55;38.65;;;6.10;77.00;;;5.97;61.50;94659.72;5056343;28;20222;-81
2021/10/30 07:20:08;;;;;;;61.67;40.05;;;6.30;77.00;;;6.13;61.62;94651.06;5074087;28;20194;-81
2021/10/30 07:22:49;;;;;;;63.92;40.15;;;6.40;77.00;;;6.29;61.23;94648.38;5073686;28;20243;-82
2021/10/30 07:25:23;;;;;;;67.63;43.38;;;6.50;77.40;;;6.41;61.80;94649.63;5057230;28;20652;-82
2021/10/30 07:27:52;;;;;;;67.70;44.42;;;6.70;77.10;;;6.56;61.78;94646.25;5066646;28;20695;-82
2021/10/30 07:30:21;;;;;;;66.63;43.28;;;6.80;77.20;;;6.69;61.76;94656.13;5060205;28;20731;-81
2021/10/30 07:32:51;;;;;;;67.85;44.25;;;6.90;77.10;;;6.78;61.93;94655.06;5076588;28;20279;-81
2021/10/30 07:35:24;;;;;;;66.70;44.08;;;7.00;77.00;;;6.93;62.12;94655.09;5093265;28;20640;-82
2021/10/30 07:37:58;;;;;;;71.50;45.42;;;7.10;77.30;;;7.04;62.11;94646.06;5058433;28;20208;-82
2021/10/30 07:40:28;;;;;;;73.90;46.20;;;7.30;77.20;;;7.14;62.15;94649.25;5077423;28;20191;-82
2021/10/30 07:42:57;;;;;;;75.35;48.83;;;7.40;77.20;;;7.26;62.26;94647.00;5059645;28;20245;-82
2021/10/30 07:45:26;;;;;;;87.90;52.80;;;7.50;77.20;;;7.34;62.50;94644.31;5071744;28;20220;-83
2021/10/30 07:47:55;;;;;;;80.13;51.17;;;7.60;77.30;;;7.46;62.44;94644.69;5075836;28;20469;-81
2021/10/30 07:50:24;;;;;;;83.40;52.88;;;7.70;77.30;;;7.55;62.52;94634.19;5094128;28;20240;-82
2021/10/30 07:52:51;;;;;;;82.82;52.38;;;7.90;77.50;;;7.64;62.67;94633.06;5059684;28;20250;-81
2021/10/30 07:55:23;;;;;;;83.38;50.17;;;7.90;77.50;;;7.75;62.96;94627.44;5057105;28;20286;-82
2021/10/30 07:57:50;;;;;;;87.63;55.63;;;8.00;77.50;;;7.83;63.11;94626.50;5072601;28;20203;-83
2021/10/30 08:00:18;;;;;;;80.53;51.95;;;8.10;77.50;;;7.92;62.81;94629.81;5056647;28;20207;-81
2021/10/30 08:02:46;;;;;;;78.78;49.58;;;8.20;77.40;;;7.98;62.86;94634.31;5056324;28;20212;-82
2021/10/30 08:05:14;;;;;;;81.10;51.50;;;8.30;77.50;;;8.08;62.71;94618.34;5074020;28;20203;-81
2021/10/30 08:07:43;;;;;;;74.72;49.55;;;8.30;77.50;;;8.16;62.80;94623.47;5056734;28;20701;-82
2021/10/30 08:10:14;;;;;;;75.43;50.05;;;8.50;77.40;;;8.22;62.56;94614.09;5058022;28;20191;-82
2021/10/30 08:12:41;;;;;;;75.65;49.00;;;8.50;77.30;;;8.35;62.34;94619.47;5073074;28;20239;-82
2021/10/30 08:15:09;;;;;;;78.18;50.65;;;8.60;77.30;;;8.46;62.33;94616.41;5056455;28;20268;-82
2021/10/30 08:17:36;;;;;;;77.47;49.00;;;8.70;77.40;;;8.55;62.34;94616.28;5056226;28;20215;-82
2021/10/30 08:20:05;;;;;;;73.57;47.90;;;8.80;77.40;;;8.65;62.21;94612.38;5058362;28;20191;-82
2021/10/30 08:22:33;;;;;;;76.75;50.63;;;8.90;77.30;;;8.74;62.26;94618.28;5070229;28;20697;-81
2021/10/30 08:25:00;;;;;;;72.85;49.33;;;9.00;77.20;;;8.77;61.96;94615.28;5055300;28;20294;-81
2021/10/30 08:27:28;;;;;;;72.10;46.92;;;9.10;77.10;;;8.86;62.07;94623.00;5067103;28;20305;-82
2021/10/30 08:29:55;;;;;;;69.85;46.55;;;9.20;77.10;;;8.91;61.75;94624.06;5092968;28;20218;-82
2021/10/30 08:32:22;;;;;;;73.50;47.53;;;9.20;76.90;;;8.96;61.81;94616.44;5072084;28;20325;-82
2021/10/30 08:34:49;;;;;;;71.45;47.60;;;9.30;76.90;;;9.07;61.73;94616.91;5059680;28;20206;-81
2021/10/30 08:37:17;;;;;;;69.65;46.83;;;9.40;76.80;;;9.15;61.46;94622.00;5072310;28;20230;-82
2021/10/30 08:39:44;;;;;;;68.30;47.00;;;9.50;76.80;;;9.17;61.45;94612.19;5087287;28;20210;-82
2021/10/30 08:42:11;;;;;;;69.47;45.95;;;9.50;76.70;;;9.24;61.12;94618.28;5063479;28;20221;-82
2021/10/30 08:44:42;;;;;;;68.82;46.97;;;9.60;76.50;;;9.25;61.20;94609.44;5092740;28;20380;-83
2021/10/30 08:47:09;;;;;;;64.70;45.38;;;9.60;76.40;;;9.27;61.27;94612.63;5088393;28;20207;-82
2021/10/30 08:49:38;;;;;;;68.28;45.53;;;9.70;76.20;;;9.29;61.29;94610.66;5101120;28;20562;-81
2021/10/30 08:52:07;;;;;;;72.57;49.78;;;9.80;76.10;;;9.32;61.12;94611.28;5071180;28;20214;-82
2021/10/30 08:54:38;;;;;;;62.72;44.85;;;9.80;75.90;;;9.33;61.05;94605.84;5059096;28;20282;-82
2021/10/30 08:57:06;;;;;;;66.57;46.10;;;9.80;75.90;;;9.38;60.86;94616.53;5091564;28;20214;-82
2021/10/30 08:59:39;;;;;;;68.63;46.78;;;9.80;75.70;;;9.38;60.93;94608.69;5058920;28;20226;-82
2021/10/30 09:02:08;;;;;;;73.28;47.33;;;9.80;75.60;;;9.37;60.87;94604.44;5091993;28;20206;-83
2021/10/30 09:04:35;;;;;;;67.00;46.80;;;9.90;75.70;;;9.41;60.71;94600.47;5091916;28;20680;-81
2021/10/30 09:07:07;;;;;;;73.53;49.00;;;9.90;75.70;;;9.46;60.83;94599.91;5058457;28;20565;-82
2021/10/30 09:09:34;;;;;;;68.68;46.92;;;9.90;75.70;;;9.49;60.76;94588.22;5058650;28;20198;-82
2021/10/30 09:12:04;;;;;;;65.25;45.75;;;9.90;75.70;;;9.56;60.44;94592.50;5058026;28;20219;-82
2021/10/30 09:14:43;;;;;;;63.67;44.60;;;9.90;75.70;;;9.63;60.72;94589.09;5075250;28;20199;-82
2021/10/30 09:17:19;;;;;;;68.70;46.47;;;10.00;74.60;;;9.73;60.71;94589.56;5058473;28;20230;-82
2021/10/30 09:19:52;;;;;;;63.85;43.90;;;10.00;74.80;;;9.87;60.20;94600.91;5074290;28;20239;-82
2021/10/30 09:22:23;;;;;;;64.13;43.10;;;10.10;75.60;;;9.97;60.59;94595.28;5092021;28;20282;-82
2021/10/30 09:24:53;;;;;;;62.05;43.47;;;10.20;74.80;;;10.04;60.60;94596.94;5087483;28;20202;-82
2021/10/30 09:27:47;;;;;;;65.93;46.00;;;10.20;74.80;;;10.17;60.41;94575.22;5057773;28;20569;-83
2021/10/30 09:30:20;;;;;;;67.45;43.95;;;10.30;74.80;;;10.24;60.19;94576.03;5075070;28;20186;-81
2021/10/30 09:33:04;;;;;;;62.13;42.58;;;10.40;74.90;;;10.33;60.03;94574.03;5090088;28;20295;-81
2021/10/30 09:35:44;;;;;;;67.82;44.92;;;10.40;74.90;;;10.44;60.15;94579.75;5074765;28;20183;-79
2021/10/30 09:38:32;;;;;;;61.88;42.80;;;10.60;75.00;;;10.53;59.89;94579.38;5091534;28;20214;-79
2021/10/30 09:41:18;;;;;;;57.83;39.83;;;10.60;75.00;;;10.62;59.98;94568.66;5091452;28;20274;-80
2021/10/30 09:44:13;;;;;;;62.33;43.85;;;10.70;75.00;;;10.70;59.83;94557.97;5067630;28;20654;-79
2021/10/30 09:46:43;;;;;;;62.53;43.63;;;10.80;75.00;;;10.85;59.54;94566.47;5055051;28;20223;-80
2021/10/30 09:49:14;;;;;;;57.17;40.80;;;10.90;74.80;;;10.92;59.45;94563.03;5071226;28;20195;-80
2021/10/30 09:51:46;;;;;;;62.70;42.50;;;11.10;75.00;;;11.01;59.30;94554.75;5054317;28;20258;-80
2021/10/30 09:54:34;;;;;;;58.55;42.25;;;11.10;74.80;;;11.15;59.20;94555.53;5054100;28;20211;-81
2021/10/30 09:57:03;;;;;;;61.10;41.38;;;11.20;74.50;;;11.26;59.02;94551.47;5054161;28;20214;-81
2021/10/30 09:59:37;;;;;;;58.10;39.95;;;11.30;74.40;;;11.32;59.05;94547.25;5070536;28;20203;-82
2021/10/30 10:02:06;;;;;;;59.17;41.60;;;11.40;74.40;;;11.46;58.66;94559.34;5070794;28;20234;-81
2021/10/30 10:04:38;;;;;;;59.50;43.10;;;11.40;74.30;;;11.54;58.57;94560.91;5072317;28;20194;-82
2021/10/30 10:07:10;;;;;;;57.83;41.85;;;11.60;74.30;;;11.60;58.43;94549.59;5070707;28;20218;-82
2021/10/30 10:09:38;;;;;;;64.60;44.63;;;11.70;74.20;;;11.68;57.88;94554.63;5054560;28;20615;-82
2021/10/30 10:12:07;;;;;;;58.80;42.47;;;11.70;73.90;;;11.75;58.00;94553.78;5037943;28;20214;-81
2021/10/30 10:14:36;;;;;;;61.75;43.60;;;11.80;73.80;;;11.86;57.83;94561.00;5056893;28;20206;-81
2021/10/30 10:17:04;;;;;;;58.83;40.75;;;11.90;73.70;;;11.92;57.84;94556.75;5054271;28;20745;-81
2021/10/30 10:19:31;;;;;;;53.55;39.95;;;12.00;73.60;;;12.00;57.79;94544.22;5070814;28;20651;-82
2021/10/30 10:21:59;;;;;;;56.45;40.72;;;12.10;73.60;;;12.07;57.65;94535.47;5056886;28;20214;-80
2021/10/30 10:24:35;;;;;;;55.25;41.65;;;12.20;73.40;;;12.13;57.28;94532.00;5091447;28;20597;-81
2021/10/30 10:27:06;;;;;;;57.90;41.72;;;12.20;73.00;;;12.17;57.34;94527.97;5057888;28;20218;-82